Time;durP1;ratioP1;P1;durP2;ratioP2;P2;SDS_P1;SDS_P2;PMS_P1;PMS_P2;Temp;Humidity;BMP_temperature;BMP_pressure;BME280_temperature;BME280_humidity;BME280_pressure;Samples;Min_cycle;Max_cycle;Signal;HPM_P1;HPM_P2
2021/05/11 00:00:23;;;;;;;13.37;12.37;;;12.90;99.90;;;;;;5001215;28;20666;-84
2021/05/11 00:02:50;;;;;;;14.33;13.03;;;12.90;99.90;;;;;;4998908;28;21415;-84
2021/05/11 00:05:17;;;;;;;13.57;12.43;;;12.80;99.90;;;;;;5000770;28;21209;-84
2021/05/11 00:07:43;;;;;;;13.20;12.20;;;12.80;99.90;;;;;;4995956;28;21019;-84
2021/05/11 00:10:10;;;;;;;14.67;13.57;;;12.90;99.90;;;;;;5000057;28;20710;-84
2021/05/11 00:12:37;;;;;;;13.30;12.30;;;12.80;99.90;;;;;;5000902;28;20694;-84
2021/05/11 00:15:05;;;;;;;13.17;12.07;;;12.80;99.90;;;;;;5003455;28;20628;-83
2021/05/11 00:17:32;;;;;;;14.23;12.83;;;12.80;99.90;;;;;;5001923;28;20624;-84
2021/05/11 00:19:59;;;;;;;13.37;12.30;;;12.80;99.90;;;;;;4993766;28;20671;-84
2021/05/11 00:22:28;;;;;;;14.57;13.33;;;12.80;99.90;;;;;;4999830;28;20730;-83
2021/05/11 00:24:55;;;;;;;15.47;14.27;;;12.70;99.90;;;;;;4999162;28;20616;-84
2021/05/11 00:27:21;;;;;;;14.87;13.70;;;12.70;99.90;;;;;;4995860;28;20642;-84
2021/05/11 00:29:47;;;;;;;14.50;13.37;;;12.80;99.90;;;;;;4997594;28;20687;-84
2021/05/11 00:32:14;;;;;;;14.60;13.40;;;12.80;99.90;;;;;;4998673;28;20631;-85
2021/05/11 00:34:40;;;;;;;13.73;12.63;;;12.80;99.90;;;;;;5004050;28;21272;-86
2021/05/11 00:37:08;;;;;;;14.13;12.87;;;12.70;99.90;;;;;;5001635;28;20631;-86
2021/05/11 00:39:34;;;;;;;14.73;13.50;;;12.80;99.90;;;;;;5001897;28;20656;-86
2021/05/11 00:42:01;;;;;;;14.80;13.70;;;12.80;99.90;;;;;;5001135;28;20636;-85
2021/05/11 00:44:28;;;;;;;14.87;13.67;;;12.90;99.90;;;;;;5001151;28;20627;-86
2021/05/11 00:46:57;;;;;;;16.47;14.87;;;12.80;99.90;;;;;;5000470;28;20648;-86
2021/05/11 00:49:24;;;;;;;15.70;14.50;;;12.90;99.90;;;;;;5000867;28;20654;-86
2021/05/11 00:51:52;;;;;;;17.00;15.60;;;12.90;99.90;;;;;;4999254;28;20624;-86
2021/05/11 00:54:19;;;;;;;18.67;17.07;;;12.90;99.90;;;;;;4998015;28;20619;-86
2021/05/11 00:56:47;;;;;;;16.30;14.90;;;12.90;99.90;;;;;;4999634;28;20619;-85
2021/05/11 00:59:17;;;;;;;16.10;14.60;;;12.90;99.90;;;;;;5001848;28;21347;-86
2021/05/11 01:01:44;;;;;;;15.33;14.03;;;12.80;99.90;;;;;;5002446;28;21123;-85
2021/05/11 01:04:11;;;;;;;15.90;14.60;;;12.80;99.90;;;;;;4998979;28;20627;-85
2021/05/11 01:06:38;;;;;;;14.80;13.60;;;12.70;99.90;;;;;;4998413;28;20624;-85
2021/05/11 01:09:05;;;;;;;16.67;15.17;;;12.70;99.90;;;;;;4999934;28;21076;-85
2021/05/11 01:11:33;;;;;;;15.87;14.47;;;12.70;99.90;;;;;;5001824;28;21057;-85
2021/05/11 01:14:00;;;;;;;15.20;13.90;;;12.70;99.90;;;;;;5001577;28;20646;-86
2021/05/11 01:16:29;;;;;;;15.43;14.03;;;12.80;99.90;;;;;;5002348;28;20698;-87
2021/05/11 01:18:59;;;;;;;14.10;12.90;;;12.60;99.90;;;;;;5001335;28;20639;-86
2021/05/11 01:21:34;;;;;;;15.00;13.80;;;12.70;99.90;;;;;;5002270;28;20659;-86
2021/05/11 01:24:04;;;;;;;16.60;15.10;;;12.60;99.90;;;;;;5000006;28;20626;-86
2021/05/11 01:26:37;;;;;;;13.40;12.30;;;12.60;99.90;;;;;;5001359;28;20709;-86
2021/05/11 01:29:12;;;;;;;15.40;14.10;;;12.60;99.90;;;;;;5001498;28;20667;-87
2021/05/11 01:48:36;;;;;;;14.70;13.30;;;12.50;99.90;;;;;;5001274;28;20654;-87
2021/05/11 01:51:15;;;;;;;14.23;12.97;;;12.50;99.90;;;;;;5002373;28;21560;-87
2021/05/11 01:53:58;;;;;;;15.13;13.83;;;12.50;99.90;;;;;;5001642;28;20667;-86
2021/05/11 01:56:42;;;;;;;18.20;16.60;;;12.60;99.90;;;;;;4998226;28;20636;-86
2021/05/11 02:22:35;;;;;;;18.63;16.93;;;12.60;99.90;;;;;;5000261;28;20703;-86
2021/05/11 02:23:58;;;;;;;17.43;15.80;;;12.50;99.90;;;;;;4999703;28;20642;-85
2021/05/11 02:26:24;;;;;;;18.67;16.80;;;12.70;99.90;;;;;;5002003;28;20632;-86
2021/05/11 02:28:51;;;;;;;19.57;17.70;;;12.70;99.90;;;;;;5001393;28;20663;-85
2021/05/11 02:31:18;;;;;;;19.87;17.90;;;12.70;99.90;;;;;;5001277;28;21313;-87
2021/05/11 02:33:44;;;;;;;19.47;17.60;;;12.70;99.90;;;;;;5000132;28;20643;-88
2021/05/11 02:36:10;;;;;;;18.90;17.10;;;12.70;99.90;;;;;;5000324;28;20635;-87
2021/05/11 02:38:38;;;;;;;17.30;15.60;;;12.70;99.90;;;;;;5000706;28;20619;-87
2021/05/11 02:41:04;;;;;;;18.97;17.17;;;12.70;99.90;;;;;;5000631;28;21296;-88
2021/05/11 02:43:33;;;;;;;18.77;16.87;;;12.70;99.90;;;;;;4998875;28;20671;-88
2021/05/11 02:46:01;;;;;;;19.87;17.80;;;12.60;99.90;;;;;;5001871;28;20639;-87
2021/05/11 02:48:27;;;;;;;19.50;17.50;;;12.70;99.90;;;;;;5000592;28;20670;-88
2021/05/11 02:50:54;;;;;;;19.03;16.67;;;12.70;99.90;;;;;;5003262;28;20659;-86
2021/05/11 02:53:20;;;;;;;19.90;17.80;;;12.70;99.90;;;;;;5001647;28;20670;-87
2021/05/11 02:55:46;;;;;;;16.90;15.30;;;12.80;99.90;;;;;;4997225;28;20723;-87
2021/05/11 02:58:15;;;;;;;19.10;16.10;;;12.90;99.90;;;;;;4998181;28;20638;-86
2021/05/11 03:00:42;;;;;;;17.33;15.53;;;12.90;99.90;;;;;;4999940;28;21280;-86
2021/05/11 03:03:09;;;;;;;15.57;14.07;;;12.90;99.90;;;;;;5001969;28;20635;-85
2021/05/11 03:05:35;;;;;;;16.10;14.40;;;12.80;99.90;;;;;;5003347;28;20987;-87
2021/05/11 03:08:02;;;;;;;14.43;12.90;;;12.70;99.90;;;;;;4997391;28;21020;-86
2021/05/11 03:10:29;;;;;;;14.70;13.20;;;12.80;99.90;;;;;;5000421;28;20651;-87
2021/05/11 03:12:55;;;;;;;16.70;15.00;;;12.80;99.90;;;;;;5004893;28;20632;-86
2021/05/11 03:15:22;;;;;;;14.80;13.30;;;12.80;99.90;;;;;;5004639;28;21161;-87
2021/05/11 03:17:48;;;;;;;14.60;13.17;;;12.80;99.90;;;;;;5001126;28;20667;-86
2021/05/11 03:20:16;;;;;;;15.20;13.70;;;12.80;99.90;;;;;;4999127;28;20652;-85
2021/05/11 03:22:42;;;;;;;14.37;12.97;;;12.80;99.90;;;;;;5001173;28;20627;-85
2021/05/11 03:25:10;;;;;;;15.70;13.53;;;12.90;99.90;;;;;;5000814;28;20630;-86
2021/05/11 03:27:36;;;;;;;14.47;12.93;;;12.90;99.90;;;;;;4998856;28;20635;-86
2021/05/11 03:30:05;;;;;;;13.40;12.10;;;12.90;99.90;;;;;;5003553;28;20740;-86
2021/05/11 03:32:31;;;;;;;14.83;13.33;;;12.90;99.90;;;;;;4999320;28;21028;-85
2021/05/11 03:34:58;;;;;;;15.77;14.07;;;12.90;99.90;;;;;;5002079;28;20624;-85
2021/05/11 03:37:25;;;;;;;14.07;12.57;;;12.90;99.90;;;;;;4992157;28;20624;-85
2021/05/11 03:39:52;;;;;;;15.37;13.17;;;12.90;99.90;;;;;;4999800;28;21727;-84
2021/05/11 03:42:21;;;;;;;14.97;13.47;;;12.70;99.90;;;;;;4999571;28;20643;-85
2021/05/11 03:44:51;;;;;;;14.83;13.17;;;12.80;99.90;;;;;;4995194;28;20625;-86
2021/05/11 03:47:20;;;;;;;15.27;13.70;;;12.80;99.90;;;;;;4991877;28;20640;-86
2021/05/11 03:49:46;;;;;;;13.77;12.37;;;12.80;99.90;;;;;;4995408;28;20679;-86
2021/05/11 03:52:13;;;;;;;15.23;13.00;;;12.80;99.90;;;;;;4996175;28;20752;-86
2021/05/11 03:54:40;;;;;;;16.20;14.60;;;12.80;99.90;;;;;;5003453;28;20713;-86
2021/05/11 03:57:07;;;;;;;14.97;13.43;;;12.80;99.90;;;;;;4999687;28;20628;-87
2021/05/11 03:59:34;;;;;;;18.53;14.20;;;12.80;99.90;;;;;;4999808;28;20654;-87
2021/05/11 04:02:01;;;;;;;14.93;13.43;;;12.80;99.90;;;;;;5010455;28;20647;-86
2021/05/11 04:04:28;;;;;;;16.70;14.80;;;12.80;99.90;;;;;;5014517;28;20619;-87
2021/05/11 04:06:54;;;;;;;18.63;15.60;;;12.80;99.90;;;;;;5014226;28;20703;-88
2021/05/11 04:09:26;;;;;;;19.50;17.60;;;12.80;99.90;;;;;;5015353;28;20703;-86
2021/05/11 04:17:32;;;;;;;18.47;16.57;;;12.90;99.90;;;;;;5012939;28;20607;-86
2021/05/11 04:20:00;;;;;;;19.13;16.97;;;12.80;99.90;;;;;;5011524;28;20652;-87
2021/05/11 04:22:26;;;;;;;20.23;18.23;;;12.90;99.90;;;;;;5003899;28;20635;-85
2021/05/11 04:24:56;;;;;;;18.27;16.50;;;12.80;99.90;;;;;;5010168;28;20724;-86
2021/05/11 04:27:24;;;;;;;17.57;15.87;;;12.80;99.90;;;;;;5011372;28;20631;-86
2021/05/11 04:29:55;;;;;;;20.70;18.70;;;12.90;99.90;;;;;;5011404;28;20667;-87
2021/05/11 04:32:22;;;;;;;21.07;18.97;;;12.80;99.90;;;;;;5025237;28;20639;-87
2021/05/11 04:34:54;;;;;;;20.53;18.43;;;12.80;99.90;;;;;;5023597;28;20619;-87
2021/05/11 04:37:21;;;;;;;21.33;19.13;;;12.90;99.90;;;;;;5009644;28;20654;-87
2021/05/11 04:39:47;;;;;;;21.87;19.60;;;12.80;99.90;;;;;;5009423;28;20697;-87
2021/05/11 04:42:15;;;;;;;21.00;18.73;;;12.80;99.90;;;;;;5007876;28;20638;-86
2021/05/11 04:44:43;;;;;;;23.20;20.80;;;12.90;99.90;;;;;;5007823;28;20693;-87
2021/05/11 04:47:13;;;;;;;23.73;19.13;;;12.90;99.90;;;;;;5005358;28;20616;-86
2021/05/11 04:49:41;;;;;;;21.27;19.03;;;12.90;99.90;;;;;;5010430;28;21284;-87
2021/05/11 04:52:08;;;;;;;24.97;20.17;;;12.90;99.90;;;;;;5007256;28;20628;-87
2021/05/11 04:54:36;;;;;;;20.47;18.37;;;12.90;99.90;;;;;;5006055;28;20615;-87
2021/05/11 04:57:04;;;;;;;20.23;17.87;;;12.90;99.90;;;;;;5007309;28;20639;-87
2021/05/11 04:59:30;;;;;;;21.83;19.53;;;13.00;99.90;;;;;;5009890;28;20671;-88
2021/05/11 05:02:01;;;;;;;21.43;19.20;;;13.00;99.90;;;;;;5012617;28;21186;-87
2021/05/11 05:04:31;;;;;;;22.77;18.87;;;12.90;99.90;;;;;;5006557;28;20635;-86
2021/05/11 05:06:57;;;;;;;23.37;20.90;;;12.90;99.90;;;;;;5002359;28;20635;-88
2021/05/11 05:09:24;;;;;;;23.77;21.13;;;13.00;99.90;;;;;;5007592;28;21252;-87
2021/05/11 05:11:50;;;;;;;21.90;18.20;;;12.90;99.90;;;;;;5009835;28;20611;-87
2021/05/11 05:14:17;;;;;;;23.50;20.33;;;12.90;99.90;;;;;;5010209;28;21147;-87
2021/05/11 05:16:43;;;;;;;22.27;19.87;;;12.90;99.90;;;;;;5008255;28;20616;-86
2021/05/11 05:19:11;;;;;;;22.30;20.00;;;12.90;99.90;;;;;;5009891;28;20619;-88
2021/05/11 05:21:39;;;;;;;22.20;19.47;;;12.80;99.90;;;;;;5009161;28;20987;-88
2021/05/11 05:24:11;;;;;;;22.17;19.07;;;12.90;99.90;;;;;;5011632;28;20615;-87
2021/05/11 05:26:39;;;;;;;20.73;18.53;;;13.00;99.90;;;;;;5008437;28;21072;-87
2021/05/11 05:29:05;;;;;;;23.73;21.03;;;12.90;99.90;;;;;;5006829;28;20653;-86
2021/05/11 05:31:32;;;;;;;21.53;19.17;;;12.90;99.90;;;;;;5014021;28;20661;-89
2021/05/11 05:33:59;;;;;;;20.67;17.60;;;12.90;99.90;;;;;;5020963;28;20631;-90
2021/05/11 05:36:28;;;;;;;20.23;18.17;;;13.00;99.90;;;;;;5021690;28;20643;-91
2021/05/11 05:38:55;;;;;;;21.57;18.90;;;13.00;99.90;;;;;;5018716;28;20656;-91
2021/05/11 05:41:24;;;;;;;21.60;18.70;;;12.90;99.90;;;;;;5013105;28;20725;-87
2021/05/11 05:43:51;;;;;;;21.17;18.70;;;12.90;99.90;;;;;;5012501;28;20649;-86
2021/05/11 05:46:18;;;;;;;20.20;18.10;;;12.80;99.90;;;;;;5011879;28;20640;-87
2021/05/11 05:48:47;;;;;;;21.47;18.67;;;12.90;99.90;;;;;;5011749;28;20659;-87
2021/05/11 05:51:15;;;;;;;21.40;18.77;;;13.00;99.90;;;;;;5017838;28;20662;-88
2021/05/11 05:53:44;;;;;;;19.00;16.83;;;13.00;99.90;;;;;;4992171;28;20627;-89
2021/05/11 05:56:13;;;;;;;15.80;14.20;;;13.10;99.90;;;;;;5010425;28;20636;-88
2021/05/11 05:58:39;;;;;;;17.73;14.73;;;13.00;99.90;;;;;;5015707;28;20619;-87
2021/05/11 06:01:08;;;;;;;17.60;15.70;;;13.00;99.90;;;;;;5007626;28;20737;-88
2021/05/11 06:03:37;;;;;;;15.27;13.63;;;13.10;99.90;;;;;;5008525;28;20636;-88
2021/05/11 06:06:08;;;;;;;19.03;15.90;;;13.10;99.90;;;;;;5013929;28;20627;-90
2021/05/11 06:08:37;;;;;;;17.63;14.97;;;13.20;99.90;;;;;;4995548;28;20690;-89
2021/05/11 06:11:10;;;;;;;17.97;16.03;;;13.30;99.90;;;;;;5011643;28;21293;-88
2021/05/11 06:13:39;;;;;;;19.67;17.00;;;13.30;99.90;;;;;;5010844;28;20742;-89
2021/05/11 06:18:59;;;;;;;20.00;15.07;;;13.40;99.90;;;;;;4988386;28;20662;-88
2021/05/11 06:21:26;;;;;;;16.80;15.20;;;13.40;99.90;;;;;;5011895;28;20655;-88
2021/05/11 06:23:52;;;;;;;17.43;15.73;;;13.40;99.90;;;;;;5010408;28;21117;-90
2021/05/11 06:26:20;;;;;;;17.73;15.83;;;13.40;99.90;;;;;;5010634;28;20652;-89
2021/05/11 06:28:47;;;;;;;17.00;15.30;;;13.50;99.90;;;;;;5012050;28;21344;-88
2021/05/11 06:31:13;;;;;;;17.53;15.93;;;13.50;99.90;;;;;;5012560;28;20687;-88
2021/05/11 06:33:40;;;;;;;17.03;15.20;;;13.50;99.90;;;;;;5014043;28;20632;-89
2021/05/11 06:36:07;;;;;;;17.40;15.70;;;13.70;99.90;;;;;;5010854;28;20651;-88
2021/05/11 06:38:34;;;;;;;17.23;15.63;;;13.80;99.90;;;;;;5012287;28;20976;-88
2021/05/11 06:41:01;;;;;;;16.07;14.27;;;13.70;99.90;;;;;;5012850;28;20787;-89
2021/05/11 06:43:30;;;;;;;16.73;15.13;;;13.80;99.90;;;;;;5007114;28;21353;-89
2021/05/11 06:46:12;;;;;;;15.43;13.97;;;13.90;99.90;;;;;;5013180;28;20738;-89
2021/05/11 06:48:44;;;;;;;17.23;15.43;;;13.80;99.90;;;;;;5008460;28;20713;-90
2021/05/11 06:53:55;;;;;;;16.67;14.17;;;13.90;99.90;;;;;;4996898;28;20943;-88
2021/05/11 06:56:25;;;;;;;16.20;14.70;;;14.00;99.90;;;;;;5009071;28;20622;-87
2021/05/11 06:58:53;;;;;;;18.20;16.50;;;13.90;99.90;;;;;;4993738;28;20723;-88
2021/05/11 07:01:22;;;;;;;17.00;15.50;;;13.90;99.90;;;;;;5006365;28;21013;-89
2021/05/11 07:03:49;;;;;;;16.10;14.70;;;13.80;99.90;;;;;;5015655;28;20628;-89
2021/05/11 07:06:17;;;;;;;14.40;13.03;;;13.90;99.90;;;;;;4989694;28;20638;-89
2021/05/11 07:08:47;;;;;;;14.90;13.60;;;14.00;99.90;;;;;;5010571;28;20660;-89
2021/05/11 07:11:28;;;;;;;16.00;14.40;;;14.10;99.90;;;;;;5003037;28;20650;-88
2021/05/11 07:13:54;;;;;;;14.90;13.60;;;14.20;99.90;;;;;;5001486;28;20635;-90
2021/05/11 07:16:21;;;;;;;11.77;10.57;;;14.10;99.90;;;;;;5002077;28;20643;-89
2021/05/11 07:18:47;;;;;;;11.70;10.50;;;14.20;99.90;;;;;;5004832;28;20620;-89
2021/05/11 07:21:15;;;;;;;13.73;12.53;;;14.10;99.90;;;;;;5004122;28;20778;-89
2021/05/11 07:23:42;;;;;;;11.13;9.87;;;14.20;99.90;;;;;;5003932;28;20631;-90
2021/05/11 07:26:13;;;;;;;11.97;10.87;;;14.20;99.90;;;;;;5002786;28;20612;-88
2021/05/11 07:29:00;;;;;;;11.17;10.07;;;14.20;99.90;;;;;;4999476;28;21285;-85
2021/05/11 07:31:28;;;;;;;9.30;8.40;;;14.30;99.90;;;;;;5001892;28;20714;-84
2021/05/11 07:33:56;;;;;;;8.67;7.07;;;14.10;99.90;;;;;;5003674;28;20673;-84
2021/05/11 07:36:23;;;;;;;10.60;9.50;;;14.10;99.90;;;;;;5005158;28;20628;-84
2021/05/11 07:38:50;;;;;;;12.50;11.30;;;14.00;99.90;;;;;;5002877;28;20670;-83
2021/05/11 07:41:17;;;;;;;11.20;10.20;;;14.10;99.90;;;;;;5001070;28;20646;-84
2021/05/11 07:43:48;;;;;;;11.00;9.90;;;14.20;99.90;;;;;;5003394;28;20647;-84
2021/05/11 07:49:24;;;;;;;11.47;10.50;;;14.20;99.90;;;;;;4992758;28;20872;-84
2021/05/11 08:03:15;;;;;;;11.17;10.17;;;14.50;99.90;;;;;;5000399;28;20616;-84
2021/05/11 08:05:59;;;;;;;10.83;9.73;;;14.70;99.90;;;;;;5000502;28;21457;-84
2021/05/11 08:14:32;;;;;;;10.67;9.37;;;14.70;99.90;;;;;;4941766;28;20618;-84
2021/05/11 08:17:00;;;;;;;9.67;8.30;;;14.70;99.90;;;;;;4940558;28;20635;-84
2021/05/11 08:27:44;;;;;;;9.40;8.47;;;14.90;99.90;;;;;;4978395;28;21495;-85
2021/05/11 08:30:11;;;;;;;10.27;9.27;;;15.10;99.90;;;;;;5001239;28;20674;-85
2021/05/11 08:32:38;;;;;;;10.70;7.80;;;15.20;99.90;;;;;;4999823;28;20658;-86
2021/05/11 08:35:06;;;;;;;9.23;8.30;;;15.10;99.90;;;;;;4998697;28;20682;-86
2021/05/11 08:37:33;;;;;;;13.27;9.30;;;15.20;99.90;;;;;;4998368;28;20636;-84
2021/05/11 08:39:59;;;;;;;10.30;7.47;;;15.20;99.90;;;;;;5001742;28;20647;-86
2021/05/11 08:42:26;;;;;;;8.13;7.20;;;15.40;99.90;;;;;;4998149;28;20655;-84
2021/05/11 08:44:52;;;;;;;7.80;6.90;;;15.50;99.90;;;;;;4999696;28;20747;-85
2021/05/11 08:47:20;;;;;;;8.17;7.47;;;15.60;99.90;;;;;;4999583;28;20639;-85
2021/05/11 08:49:47;;;;;;;9.17;7.00;;;15.70;99.90;;;;;;4996802;28;20671;-87
2021/05/11 08:52:22;;;;;;;8.20;7.50;;;15.90;99.90;;;;;;5000774;28;20620;-87
2021/05/11 08:55:07;;;;;;;8.40;7.70;;;15.90;99.90;;;;;;5003189;28;20627;-87
2021/05/11 09:06:18;;;;;;;5.90;5.40;;;15.60;99.90;;;;;;5006189;28;20614;-87
2021/05/11 09:09:01;;;;;;;7.13;6.43;;;15.50;99.90;;;;;;5002391;28;20666;-86
2021/05/11 09:15:04;;;;;;;5.37;4.83;;;15.80;99.90;;;;;;5004802;28;20644;-87
2021/05/11 09:26:07;;;;;;;8.30;4.70;;;16.50;99.90;;;;;;5006683;28;21133;-89
2021/05/11 09:28:40;;;;;;;5.03;4.53;;;16.70;99.90;;;;;;5004173;28;20635;-87
2021/05/11 09:31:25;;;;;;;5.27;4.73;;;16.70;99.90;;;;;;5004272;28;20663;-86
2021/05/11 09:34:08;;;;;;;4.73;4.33;;;16.80;99.90;;;;;;5003279;28;20746;-87
2021/05/11 10:40:09;;;;;;;6.60;4.80;;;17.10;99.90;;;;;;4999509;28;21264;-85
2021/05/11 10:48:28;;;;;;;4.60;4.30;;;17.30;99.90;;;;;;5003083;28;20584;-87
2021/05/11 10:50:56;;;;;;;5.30;4.90;;;17.10;99.90;;;;;;5003953;28;20663;-88
2021/05/11 10:53:54;;;;;;;6.23;5.70;;;17.10;99.90;;;;;;5003394;28;20666;-90
2021/05/11 10:56:43;;;;;;;5.63;5.13;;;17.00;99.90;;;;;;5005394;28;20644;-89
2021/05/11 10:59:17;;;;;;;5.83;5.23;;;17.00;99.90;;;;;;5012329;28;20663;-91
2021/05/11 11:01:46;;;;;;;5.03;4.60;;;16.80;99.90;;;;;;5012202;28;20624;-90
2021/05/11 11:04:15;;;;;;;5.10;4.67;;;17.00;99.90;;;;;;5011010;28;20652;-91
2021/05/11 11:07:08;;;;;;;4.80;4.40;;;17.30;99.90;;;;;;5015529;28;20716;-94
2021/05/11 11:09:37;;;;;;;5.37;5.00;;;17.20;99.90;;;;;;5014286;28;21036;-95
2021/05/11 11:12:05;;;;;;;4.90;4.50;;;17.20;99.90;;;;;;5015270;28;20696;-93
2021/05/11 11:14:37;;;;;;;8.43;5.20;;;17.40;99.90;;;;;;4993751;28;20631;-94
2021/05/11 11:17:07;;;;;;;7.20;6.17;;;17.70;99.90;;;;;;4992834;28;21052;-93
2021/05/11 11:19:35;;;;;;;5.83;5.33;;;17.90;99.90;;;;;;5031799;28;20692;-92
2021/05/11 11:24:48;;;;;;;6.73;6.17;;;17.50;99.90;;;;;;5032792;28;20622;-93
2021/05/11 11:27:14;;;;;;;5.63;5.23;;;17.70;99.90;;;;;;5021279;28;20646;-94
2021/05/11 11:29:43;;;;;;;5.77;5.27;;;18.10;99.90;;;;;;5017226;28;20659;-90
2021/05/11 11:32:09;;;;;;;8.20;7.13;;;18.20;99.90;;;;;;5008605;28;20632;-91
2021/05/11 11:34:36;;;;;;;7.40;6.77;;;18.20;99.90;;;;;;5011634;28;20634;-91
2021/05/11 11:37:07;;;;;;;6.60;6.20;;;18.30;99.90;;;;;;4991593;28;20631;-92
2021/05/11 11:39:35;;;;;;;8.50;7.80;;;18.40;99.90;;;;;;4994432;28;20644;-91
2021/05/11 11:42:05;;;;;;;7.70;7.00;;;18.20;99.90;;;;;;5012214;28;20624;-93
2021/05/11 11:44:36;;;;;;;10.07;9.17;;;18.20;99.90;;;;;;5009211;28;20644;-91
2021/05/11 11:47:04;;;;;;;8.60;7.90;;;18.00;99.90;;;;;;5006235;28;20626;-91
2021/05/11 11:49:32;;;;;;;10.80;9.73;;;17.70;99.90;;;;;;5014151;28;20671;-91
2021/05/11 11:52:03;;;;;;;10.60;9.70;;;17.60;99.90;;;;;;5006910;28;20670;-91
2021/05/11 11:54:35;;;;;;;12.00;9.57;;;17.60;99.90;;;;;;5007008;28;20716;-91
2021/05/11 12:00:11;;;;;;;10.07;9.20;;;17.40;99.90;;;;;;5001909;28;20687;-91
2021/05/11 12:02:38;;;;;;;11.13;10.13;;;17.50;99.90;;;;;;5011720;28;20730;-91
2021/05/11 12:05:11;;;;;;;12.13;10.70;;;17.60;99.90;;;;;;5010368;28;21229;-90
2021/05/11 12:07:54;;;;;;;11.77;10.60;;;17.50;99.90;;;;;;5004786;28;20747;-91
2021/05/11 12:10:31;;;;;;;12.13;11.03;;;17.60;99.90;;;;;;5008406;28;20663;-92
2021/05/11 12:13:04;;;;;;;12.40;11.30;;;17.50;99.90;;;;;;5014672;28;21128;-90
2021/05/11 12:15:30;;;;;;;12.20;11.10;;;17.60;99.90;;;;;;5018297;28;20631;-91
2021/05/11 12:18:06;;;;;;;11.57;10.67;;;17.70;99.90;;;;;;5018351;28;20721;-92
2021/05/11 12:20:37;;;;;;;11.90;11.00;;;17.70;99.90;;;;;;5016244;28;20726;-92
2021/05/11 12:23:09;;;;;;;12.50;11.50;;;17.70;99.90;;;;;;5009678;28;20636;-90
2021/05/11 12:25:37;;;;;;;10.73;9.93;;;17.60;99.90;;;;;;5012851;28;20620;-92
2021/05/11 12:28:07;;;;;;;9.63;8.83;;;17.60;99.90;;;;;;5008060;28;21161;-91
2021/05/11 12:30:38;;;;;;;11.00;10.20;;;17.80;99.90;;;;;;4992938;28;20660;-90
2021/05/11 12:33:06;;;;;;;11.57;10.27;;;17.80;99.90;;;;;;5006029;28;20639;-90
2021/05/11 12:35:33;;;;;;;8.80;8.00;;;17.70;99.90;;;;;;5006349;28;21173;-90
2021/05/11 12:38:02;;;;;;;9.90;9.10;;;17.70;99.90;;;;;;5006716;28;20637;-90
2021/05/11 12:40:51;;;;;;;7.40;6.73;;;17.80;99.90;;;;;;5005547;28;20636;-92
2021/05/11 12:43:41;;;;;;;5.83;5.43;;;17.60;99.90;;;;;;5004977;28;20651;-90
2021/05/11 12:46:19;;;;;;;5.33;4.83;;;17.80;99.90;;;;;;5003069;28;20723;-90
2021/05/11 12:48:55;;;;;;;4.50;4.10;;;18.00;99.90;;;;;;5010771;28;21259;-90
2021/05/11 12:51:30;;;;;;;4.70;4.40;;;18.20;99.90;;;;;;5007425;28;21173;-91
2021/05/11 12:53:59;;;;;;;4.40;4.10;;;18.40;99.90;;;;;;5011284;28;20726;-90
2021/05/11 12:56:44;;;;;;;4.20;3.97;;;18.40;99.90;;;;;;5002288;28;20628;-91
2021/05/11 12:59:24;;;;;;;4.60;4.20;;;18.40;99.90;;;;;;5005137;28;20640;-90
2021/05/11 13:01:56;;;;;;;5.50;5.10;;;18.60;99.90;;;;;;5003499;28;20634;-90
2021/05/11 13:27:22;;;;;;;8.57;8.00;;;17.70;99.90;;;;;;4999602;28;20595;-90
2021/05/11 13:30:04;;;;;;;7.73;7.10;;;17.70;99.90;;;;;;5027424;28;20639;-91
2021/05/11 13:32:48;;;;;;;8.30;7.70;;;17.50;99.90;;;;;;5029239;28;20624;-90
2021/05/11 13:35:14;;;;;;;6.07;5.67;;;17.30;99.90;;;;;;5029200;28;20630;-91
2021/05/11 13:37:42;;;;;;;6.00;5.50;;;17.00;99.90;;;;;;5026607;28;20691;-90
2021/05/11 13:40:10;;;;;;;6.30;5.10;;;16.80;99.90;;;;;;5008024;28;20633;-89
2021/05/11 13:42:37;;;;;;;5.70;5.10;;;16.60;99.90;;;;;;5028813;28;20637;-90
2021/05/11 13:45:05;;;;;;;5.13;4.63;;;16.50;99.90;;;;;;5029093;28;20642;-90
2021/05/11 13:47:36;;;;;;;5.63;5.23;;;16.30;99.90;;;;;;5012212;28;21610;-90
2021/05/11 13:50:05;;;;;;;5.80;5.30;;;16.20;99.90;;;;;;5006730;28;20662;-91
2021/05/11 13:52:38;;;;;;;5.83;5.20;;;16.00;99.90;;;;;;5028328;28;20631;-91
2021/05/11 13:55:17;;;;;;;7.13;5.47;;;15.90;99.90;;;;;;5021674;28;20608;-89
2021/05/11 14:03:28;;;;;;;8.87;8.17;;;15.50;99.90;;;;;;5023941;28;20611;-89
2021/05/11 14:05:54;;;;;;;8.07;7.27;;;15.50;99.90;;;;;;5019930;28;20635;-90
2021/05/11 14:08:21;;;;;;;9.17;8.30;;;15.40;99.90;;;;;;5017488;28;20660;-90
2021/05/11 14:10:48;;;;;;;8.13;7.53;;;15.20;99.90;;;;;;5022150;28;20659;-89
2021/05/11 14:13:16;;;;;;;8.70;8.00;;;15.30;99.90;;;;;;5023376;28;20646;-90
2021/05/11 14:15:46;;;;;;;9.07;8.43;;;15.20;99.90;;;;;;5025150;28;20629;-91
2021/05/11 14:18:13;;;;;;;8.30;7.70;;;15.10;99.90;;;;;;5020530;28;20733;-90
2021/05/11 14:20:41;;;;;;;10.63;9.83;;;15.00;99.90;;;;;;5025288;28;21028;-91
2021/05/11 14:23:08;;;;;;;8.63;7.83;;;15.00;99.90;;;;;;5011291;28;20631;-91
2021/05/11 14:25:35;;;;;;;8.20;7.57;;;15.00;99.90;;;;;;5029239;28;20615;-92
2021/05/11 14:28:03;;;;;;;8.13;7.60;;;15.00;99.90;;;;;;5028099;28;20663;-91
2021/05/11 14:30:30;;;;;;;8.17;7.50;;;14.90;99.90;;;;;;5029308;28;20750;-92
2021/05/11 14:32:57;;;;;;;6.73;6.33;;;14.90;99.90;;;;;;5027026;28;20624;-90
2021/05/11 14:35:30;;;;;;;5.70;5.40;;;14.80;99.90;;;;;;5020578;28;20639;-90
2021/05/11 14:38:00;;;;;;;6.53;6.03;;;14.80;99.90;;;;;;5024993;28;21054;-91
2021/05/11 14:40:27;;;;;;;5.80;5.40;;;14.60;99.90;;;;;;5016672;28;20628;-91
2021/05/11 14:42:54;;;;;;;4.93;4.57;;;14.60;99.90;;;;;;5019122;28;20695;-93
2021/05/11 14:45:23;;;;;;;4.40;4.10;;;14.60;99.90;;;;;;5023105;28;20628;-92
2021/05/11 14:47:51;;;;;;;4.27;3.97;;;14.50;99.90;;;;;;5021104;28;20740;-90
2021/05/11 14:50:19;;;;;;;4.77;4.30;;;14.60;99.90;;;;;;5014628;28;20659;-91
2021/05/11 14:52:52;;;;;;;5.03;4.63;;;14.60;99.90;;;;;;5013858;28;20747;-91
2021/05/11 14:55:24;;;;;;;4.03;3.80;;;14.50;99.90;;;;;;5008786;28;20975;-90
2021/05/11 14:57:51;;;;;;;4.97;4.13;;;14.50;99.90;;;;;;5017571;28;20648;-91
2021/05/11 15:00:19;;;;;;;4.43;3.90;;;14.50;99.90;;;;;;5012897;28;20604;-92
2021/05/11 15:02:46;;;;;;;4.70;4.30;;;14.50;99.90;;;;;;4991891;28;20685;-91
2021/05/11 15:05:14;;;;;;;4.10;3.80;;;14.50;99.90;;;;;;5012125;28;20650;-92
2021/05/11 15:07:41;;;;;;;4.20;3.90;;;14.50;99.90;;;;;;5009934;28;20647;-91
2021/05/11 15:10:09;;;;;;;3.57;3.10;;;14.50;99.90;;;;;;5007753;28;20655;-92
2021/05/11 15:12:38;;;;;;;3.30;3.00;;;14.40;99.90;;;;;;5010974;28;20636;-91
2021/05/11 15:15:10;;;;;;;3.17;2.97;;;14.40;99.90;;;;;;5015074;28;20624;-91
2021/05/11 15:20:22;;;;;;;2.30;2.10;;;14.20;99.90;;;;;;5010055;28;20630;-90
2021/05/11 15:22:51;;;;;;;2.10;2.00;;;14.20;99.90;;;;;;5010846;28;20616;-91
2021/05/11 15:25:27;;;;;;;3.90;1.70;;;14.10;99.90;;;;;;5007420;28;20621;-91
2021/05/11 15:27:57;;;;;;;1.90;1.80;;;13.90;99.90;;;;;;5009023;28;20678;-91
2021/05/11 15:30:25;;;;;;;2.33;1.63;;;13.90;99.90;;;;;;5009014;28;20656;-92
2021/05/11 15:32:55;;;;;;;2.13;1.73;;;13.80;99.90;;;;;;5005134;28;21187;-91
2021/05/11 15:35:29;;;;;;;1.67;1.57;;;13.70;99.90;;;;;;5007942;28;20620;-90
2021/05/11 15:37:59;;;;;;;3.53;2.63;;;13.80;99.90;;;;;;5008622;28;20655;-91
2021/05/11 15:40:29;;;;;;;2.80;2.10;;;13.90;99.90;;;;;;5008618;28;20663;-90
2021/05/11 15:42:57;;;;;;;4.17;2.57;;;13.80;99.90;;;;;;4990580;28;21191;-92
2021/05/11 15:45:26;;;;;;;2.43;1.90;;;13.80;99.90;;;;;;5004888;28;20636;-90
2021/05/11 15:47:56;;;;;;;2.20;2.10;;;13.80;99.90;;;;;;5011276;28;20698;-92
2021/05/11 15:50:25;;;;;;;2.03;1.83;;;13.70;99.90;;;;;;5008880;28;20659;-91
2021/05/11 15:52:53;;;;;;;2.47;1.30;;;13.70;99.90;;;;;;5014021;28;20620;-91
2021/05/11 15:55:21;;;;;;;3.23;1.60;;;13.70;99.90;;;;;;5012763;28;20628;-91
2021/05/11 15:57:50;;;;;;;1.30;1.20;;;13.80;99.90;;;;;;5013328;28;20702;-91
2021/05/11 16:00:21;;;;;;;1.73;1.43;;;13.80;99.90;;;;;;5011908;28;20664;-91
2021/05/11 16:02:48;;;;;;;2.33;1.10;;;13.70;99.90;;;;;;5002626;28;20647;-91
2021/05/11 16:05:18;;;;;;;1.97;1.17;;;13.70;99.90;;;;;;5012945;28;20616;-91
2021/05/11 16:07:44;;;;;;;1.33;1.23;;;13.70;99.90;;;;;;5007996;28;21052;-90
2021/05/11 16:10:12;;;;;;;2.43;1.50;;;13.70;99.90;;;;;;5019112;28;20659;-90
2021/05/11 16:12:40;;;;;;;1.70;1.60;;;13.70;99.90;;;;;;5018881;28;21155;-90